Lexington, Michigan
Current Conditions -  °F | °C
As of 10:09 PM on Sunday 23 Nov 2014 (Local Time) from CYZR Reporting Station
Moderate Rain Moderate Rain  
Wind Chill: 50°   Ceiling: 3300
Heat Index: 50°   Visibility: 5mi
Dew Point: 46°   Wind: 21mph
Humidity: 87%   Direction: 140°SE
Pressure: 29.45"   Gusts: 32mph
Location:  43.27°N, 82.53°W
Report Text: CYZR 240309Z AUTO 14018G28KT 5SM RA BR BKN033 BKN041 OVC085 10/08 A2945 RMK PRESFR PCPN 0.8MM PAST HR SLP974 DENSITY ALT 600FT
Loading
Personal Weather Stations






























Interactive Weather Map New forecast layout! Learn more

10-Day Weather Forecast

Advertisements
Track Severe Weather on mobile